To NAV CANADA Home Page Login to a new session Search on AWWS site Disclaimer Vers la page française équivalente Tips FAQ What's new on the site To the Forecasts and Observations / NOTAM section To "File a Flight Plan" website Publications and other links Update of the User's profile FIC Telephone Numbers My Weather Data Folder Route Weather Data Regional Weather Data Local Weather Data To the Forecasts and Observations / NOTAM section
Request Generated 05/24/2018 at 00:08:03 UTC . Weather information available at that time is displayed.

METAR/TAF

TORONTO/BILLY BISHOP TORONTO CITY AIRPORT/ON    (show WxCam)

METAR CYTZ 240000Z AUTO 32009G17KT 290V010 9SM CLR 24/04 A3008 RMK
SLP187 DENSITY ALT 1100FT=
METAR CYTZ 232300Z AUTO 32008G16KT 290V360 9SM CLR 25/05 A3007 RMK
SLP183 DENSITY ALT 1300FT=
METAR CYTZ 232200Z AUTO 33011G16KT 290V360 9SM CLR 26/04 A3006 RMK
SLP181 DENSITY ALT 1300FT=

TAF AMD CYTZ 232034Z 2320/2420 35010G20KT P6SM FEW250
BECMG 2323/2401 35008KT
FM240500 VRB03KT P6SM SKC
BECMG 2413/2415 17007KT
RMK FCST BASED ON AUTO OBS. NXT FCST BY 240200Z=
Your time UTC time
Weather data provided by Environment Canada and NAV CANADA